createdAt,value
2023-03-12T00:03:19.497Z,8.65
2023-03-12T00:05:46.629Z,10.18
2023-03-12T00:08:14.315Z,6.78
2023-03-12T00:10:43.261Z,10.40
2023-03-12T00:13:13.241Z,11.80
2023-03-12T00:15:40.365Z,9.05
2023-03-12T00:18:07.662Z,9.85
2023-03-12T00:20:34.981Z,9.60
2023-03-12T00:23:08.041Z,8.10
2023-03-12T00:25:36.196Z,7.93
2023-03-12T00:28:03.308Z,7.60
2023-03-12T00:30:31.296Z,12.27
2023-03-12T00:32:58.325Z,10.82
2023-03-12T00:35:26.995Z,11.18
2023-03-12T00:37:54.267Z,8.80
2023-03-12T00:40:21.525Z,7.50
2023-03-12T00:42:48.584Z,7.50
2023-03-12T00:45:15.830Z,11.30
2023-03-12T00:47:42.804Z,11.65
2023-03-12T00:50:10.223Z,8.80
2023-03-12T00:52:37.397Z,10.10
2023-03-12T00:55:05.832Z,8.95
2023-03-12T00:57:32.901Z,10.55
2023-03-12T01:00:00.210Z,12.50
2023-03-12T01:02:27.291Z,8.32
2023-03-12T01:04:54.421Z,9.05
2023-03-12T01:07:21.467Z,9.18
2023-03-12T01:09:51.255Z,10.27
2023-03-12T01:12:18.252Z,8.52
2023-03-12T01:14:45.128Z,8.00
2023-03-12T01:17:12.455Z,8.45
2023-03-12T01:19:39.692Z,8.70
2023-03-12T01:22:07.010Z,10.52
2023-03-12T01:24:33.986Z,7.30
2023-03-12T01:27:01.006Z,7.25
2023-03-12T01:29:28.594Z,7.72
2023-03-12T01:31:55.670Z,10.30
2023-03-12T01:34:22.965Z,7.25
2023-03-12T01:36:50.345Z,8.30
2023-03-12T01:39:17.718Z,7.90
2023-03-12T01:41:45.138Z,7.38
2023-03-12T01:44:15.080Z,6.88
2023-03-12T01:46:43.987Z,6.53
2023-03-12T01:49:35.648Z,8.95
2023-03-12T01:52:07.778Z,9.95
2023-03-12T01:54:50.024Z,5.47
2023-03-12T01:57:21.453Z,6.68
2023-03-12T02:00:00.149Z,6.15
2023-03-12T02:02:31.752Z,9.98
2023-03-12T02:05:23.721Z,7.32
2023-03-12T02:07:54.256Z,10.30
2023-03-12T02:10:23.876Z,6.55
2023-03-12T02:12:52.148Z,7.30
2023-03-12T02:15:19.697Z,9.18
2023-03-12T02:17:47.074Z,6.75
2023-03-12T02:20:35.442Z,9.18
2023-03-12T02:23:19.275Z,8.82
2023-03-12T02:25:50.411Z,6.82
2023-03-12T02:28:22.524Z,8.68
2023-03-12T02:30:56.567Z,6.80
2023-03-12T02:33:23.855Z,5.22
2023-03-12T02:35:52.975Z,7.18
2023-03-12T02:38:39.726Z,3.65
2023-03-12T02:41:22.145Z,4.57
2023-03-12T02:44:10.154Z,4.55
2023-03-12T02:46:49.702Z,5.35
2023-03-12T02:49:19.336Z,6.43
2023-03-12T02:51:47.686Z,5.10
2023-03-12T02:54:17.607Z,5.63
2023-03-12T02:56:45.538Z,7.53
2023-03-12T02:59:13.948Z,6.63
2023-03-12T03:01:41.394Z,4.38
2023-03-12T03:04:10.521Z,7.47
2023-03-12T03:06:41.832Z,6.95
2023-03-12T03:09:09.703Z,6.05
2023-03-12T03:11:36.986Z,8.95
2023-03-12T03:14:07.116Z,4.95
2023-03-12T03:16:34.675Z,4.88
2023-03-12T03:19:01.834Z,5.82
2023-03-12T03:21:29.554Z,5.95
2023-03-12T03:23:56.781Z,5.63
2023-03-12T03:26:24.844Z,4.85
2023-03-12T03:28:52.334Z,6.65
2023-03-12T03:31:19.574Z,5.53
2023-03-12T03:33:52.011Z,8.68
2023-03-12T03:36:19.643Z,4.43
2023-03-12T03:38:49.787Z,7.50
2023-03-12T03:41:19.167Z,5.65
2023-03-12T03:43:47.706Z,4.93
2023-03-12T03:46:16.903Z,4.25
2023-03-12T03:48:43.946Z,5.13
2023-03-12T03:51:12.246Z,7.68
2023-03-12T03:53:39.620Z,5.57
2023-03-12T03:56:09.032Z,10.20
2023-03-12T03:58:36.913Z,6.20
2023-03-12T04:01:04.471Z,6.90
2023-03-12T04:03:31.703Z,3.50
2023-03-12T04:06:06.058Z,4.38
2023-03-12T04:08:36.091Z,8.20
2023-03-12T04:11:17.909Z,6.07
2023-03-12T04:13:45.968Z,3.88
2023-03-12T04:16:14.641Z,6.40
2023-03-12T04:18:41.731Z,3.75
2023-03-12T04:21:11.226Z,4.35
2023-03-12T04:23:38.708Z,5.32
2023-03-12T04:26:06.858Z,6.60
2023-03-12T04:28:35.171Z,5.15
2023-03-12T04:31:05.810Z,3.63
2023-03-12T04:33:38.174Z,3.45
2023-03-12T04:36:06.386Z,6.35
2023-03-12T04:38:35.618Z,6.43
2023-03-12T04:41:12.667Z,3.42
2023-03-12T04:43:40.077Z,5.60
2023-03-12T04:46:08.228Z,6.53
2023-03-12T04:48:36.121Z,6.88
2023-03-12T04:51:04.594Z,5.47
2023-03-12T04:55:59.636Z,3.92
2023-03-12T04:58:28.468Z,6.47
2023-03-12T05:00:57.020Z,4.43
2023-03-12T05:03:24.327Z,3.17
2023-03-12T05:05:53.408Z,5.45
2023-03-12T05:08:20.720Z,4.55
2023-03-12T05:10:47.572Z,4.95
2023-03-12T05:13:21.075Z,3.20
2023-03-12T05:15:51.254Z,5.97
2023-03-12T05:18:21.027Z,5.40
2023-03-12T05:20:57.469Z,5.90
2023-03-12T05:23:24.778Z,3.88
2023-03-12T05:25:51.904Z,5.32
2023-03-12T05:28:20.691Z,5.88
2023-03-12T05:30:48.176Z,6.35
2023-03-12T05:33:15.103Z,10.18
2023-03-12T05:35:42.088Z,8.23
2023-03-12T05:38:09.531Z,5.43
2023-03-12T05:40:36.669Z,4.70
2023-03-12T05:43:04.073Z,7.50
2023-03-12T05:45:33.091Z,5.25
2023-03-12T05:48:03.028Z,2.97
2023-03-12T05:50:31.046Z,4.78
2023-03-12T05:52:57.962Z,2.55
2023-03-12T05:55:25.849Z,4.40
2023-03-12T05:57:52.808Z,4.53
2023-03-12T06:00:22.460Z,3.70
2023-03-12T06:02:49.462Z,6.00
2023-03-12T06:05:17.297Z,7.00
2023-03-12T06:07:44.298Z,4.93
2023-03-12T06:10:12.098Z,4.85
2023-03-12T06:12:39.209Z,8.57
2023-03-12T06:15:08.212Z,4.63
2023-03-12T06:17:35.397Z,5.60
2023-03-12T06:20:02.504Z,5.63
2023-03-12T06:22:30.270Z,6.72
2023-03-12T06:24:57.529Z,2.70
2023-03-12T06:27:24.596Z,6.43
2023-03-12T06:29:52.178Z,8.32
2023-03-12T06:32:19.462Z,5.93
2023-03-12T06:34:46.825Z,5.70
2023-03-12T06:37:13.905Z,5.68
2023-03-12T06:39:41.464Z,4.95
2023-03-12T06:42:08.413Z,5.00
2023-03-12T06:44:35.423Z,6.32
2023-03-12T06:47:02.709Z,5.82
2023-03-12T06:49:33.599Z,7.43
2023-03-12T06:52:07.660Z,8.23
2023-03-12T06:57:18.109Z,7.57
2023-03-12T06:59:44.933Z,8.20
2023-03-12T07:02:12.392Z,8.27
2023-03-12T07:04:39.304Z,6.13
2023-03-12T07:07:06.085Z,7.88
2023-03-12T07:09:33.546Z,4.30
2023-03-12T07:12:00.500Z,7.72
2023-03-12T07:14:27.372Z,6.50
2023-03-12T07:16:54.484Z,7.93
2023-03-12T07:19:21.475Z,14.60
2023-03-12T07:21:48.513Z,5.80
2023-03-12T07:24:15.415Z,7.05
2023-03-12T07:26:44.764Z,9.02
2023-03-12T07:29:11.770Z,6.60
2023-03-12T07:31:39.259Z,8.02
2023-03-12T07:34:06.844Z,7.97
2023-03-12T07:36:33.973Z,10.23
2023-03-12T07:39:02.421Z,9.18
2023-03-12T07:41:29.449Z,7.60
2023-03-12T07:43:57.282Z,7.10
2023-03-12T07:46:24.582Z,7.85
2023-03-12T07:48:51.739Z,7.53
2023-03-12T07:51:18.890Z,7.38
2023-03-12T07:53:46.172Z,8.80
2023-03-12T07:56:13.355Z,8.38
2023-03-12T07:58:40.587Z,10.95
2023-03-12T08:01:08.960Z,14.52
2023-03-12T08:03:36.327Z,8.95
2023-03-12T08:06:06.242Z,10.13
2023-03-12T08:08:33.439Z,8.68
2023-03-12T08:11:00.902Z,9.85
2023-03-12T08:13:28.423Z,11.27
2023-03-12T08:15:55.817Z,7.55
2023-03-12T08:18:25.225Z,6.50
2023-03-12T08:20:54.411Z,8.98
2023-03-12T08:23:22.432Z,13.27
2023-03-12T08:25:51.443Z,9.68
2023-03-12T08:28:19.190Z,12.00
2023-03-12T08:30:51.553Z,10.57
2023-03-12T08:33:18.846Z,11.30
2023-03-12T08:35:46.248Z,7.50
2023-03-12T08:38:13.769Z,12.65
2023-03-12T08:40:40.738Z,12.68
2023-03-12T08:43:08.086Z,11.18
2023-03-12T08:45:36.498Z,15.50
2023-03-12T08:50:32.658Z,7.60
2023-03-12T08:53:00.352Z,12.80
2023-03-12T08:55:30.787Z,13.27
2023-03-12T08:58:00.895Z,14.07
2023-03-12T09:00:27.902Z,14.35
2023-03-12T09:02:58.866Z,18.33
2023-03-12T09:05:26.459Z,16.73
2023-03-12T09:07:53.284Z,18.38
2023-03-12T09:10:20.495Z,21.55
2023-03-12T09:12:47.606Z,16.75
2023-03-12T09:15:15.818Z,15.82
2023-03-12T09:17:42.894Z,18.75
2023-03-12T09:20:16.770Z,15.80
2023-03-12T09:22:44.930Z,20.40
2023-03-12T09:25:12.409Z,18.25
2023-03-12T09:27:45.136Z,19.27
2023-03-12T09:30:16.099Z,22.65
2023-03-12T09:32:45.559Z,28.67
2023-03-12T09:35:14.967Z,20.25
2023-03-12T09:37:43.131Z,15.63
2023-03-12T09:40:18.280Z,27.45
2023-03-12T09:42:58.483Z,26.48
2023-03-12T09:45:28.672Z,21.27
2023-03-12T09:47:58.951Z,27.73
2023-03-12T09:50:43.746Z,23.70
2023-03-12T09:53:38.660Z,27.55
2023-03-12T09:56:10.256Z,20.73
2023-03-12T09:58:38.588Z,22.42
2023-03-12T10:01:31.896Z,22.55
2023-03-12T10:04:26.813Z,21.65
2023-03-12T10:07:18.603Z,22.25
2023-03-12T10:10:02.193Z,27.20
2023-03-12T10:12:56.200Z,26.73
2023-03-12T10:15:45.999Z,29.00
2023-03-12T10:18:22.567Z,23.95
2023-03-12T10:20:55.790Z,26.42
2023-03-12T10:23:39.936Z,29.80
2023-03-12T10:26:15.718Z,23.92
2023-03-12T10:28:52.876Z,26.85
2023-03-12T10:31:32.812Z,22.30
2023-03-12T10:34:02.022Z,32.97
2023-03-12T10:36:41.350Z,23.35
2023-03-12T10:39:17.906Z,19.02
2023-03-12T10:41:48.200Z,23.33
2023-03-12T10:44:25.901Z,20.80
2023-03-12T10:46:57.024Z,21.15
2023-03-12T10:49:24.101Z,23.95
2023-03-12T10:51:55.873Z,25.35
2023-03-12T10:54:31.826Z,25.38
2023-03-12T10:56:59.262Z,24.48
2023-03-12T10:59:29.903Z,20.95
2023-03-12T11:01:58.713Z,24.73
2023-03-12T11:04:32.709Z,22.30
2023-03-12T11:07:33.658Z,18.15
2023-03-12T11:10:18.192Z,21.27
2023-03-12T11:13:01.105Z,20.02
2023-03-12T11:15:51.333Z,16.10
2023-03-12T11:18:35.052Z,19.75
2023-03-12T11:21:10.977Z,18.75
2023-03-12T11:23:48.477Z,18.05
2023-03-12T11:26:23.415Z,34.38
2023-03-12T11:29:12.306Z,25.10
2023-03-12T11:31:46.589Z,24.35
2023-03-12T11:34:31.457Z,15.93
2023-03-12T11:37:12.918Z,19.75
2023-03-12T11:40:15.092Z,22.48
2023-03-12T11:42:52.060Z,18.23
2023-03-12T11:45:51.789Z,20.25
2023-03-12T11:48:41.095Z,21.55
2023-03-12T11:51:28.171Z,20.05
2023-03-12T11:54:01.061Z,21.00
2023-03-12T11:56:39.332Z,17.60
2023-03-12T11:59:39.658Z,26.65
2023-03-12T12:02:45.322Z,24.52
2023-03-12T12:05:39.785Z,28.83
2023-03-12T12:08:32.904Z,20.08
2023-03-12T12:11:17.983Z,25.35
2023-03-12T12:14:04.393Z,19.85
2023-03-12T12:17:13.035Z,24.35
2023-03-12T12:20:11.398Z,15.70
2023-03-12T12:23:17.787Z,25.13
2023-03-12T12:26:05.778Z,17.90
2023-03-12T12:29:20.781Z,30.10
2023-03-12T12:31:57.605Z,19.48
2023-03-12T12:34:32.373Z,22.73
2023-03-12T12:37:12.465Z,26.45
2023-03-12T12:39:53.309Z,24.75
2023-03-12T12:42:26.705Z,22.50
2023-03-12T12:44:57.762Z,22.20
2023-03-12T12:47:43.636Z,27.35
2023-03-12T12:50:21.974Z,17.77
2023-03-12T12:52:57.089Z,23.70
2023-03-12T12:55:35.093Z,25.27
2023-03-12T12:58:17.153Z,15.93
2023-03-12T13:00:53.450Z,20.52
2023-03-12T13:03:26.301Z,14.13
2023-03-12T13:05:53.294Z,23.23
2023-03-12T13:08:44.638Z,30.42
2023-03-12T13:11:19.499Z,25.35
2023-03-12T13:14:02.663Z,19.52
2023-03-12T13:16:36.315Z,22.38
2023-03-12T13:19:15.667Z,18.13
2023-03-12T13:21:51.634Z,18.58
2023-03-12T13:24:37.517Z,17.55
2023-03-12T13:27:29.394Z,23.00
2023-03-12T13:29:57.753Z,26.65
2023-03-12T13:32:37.222Z,21.30
2023-03-12T13:35:24.554Z,16.30
2023-03-12T13:37:53.989Z,22.05
2023-03-12T13:40:30.221Z,26.42
2023-03-12T13:43:10.084Z,13.65
2023-03-12T13:46:23.588Z,20.00
2023-03-12T13:48:51.408Z,29.13
2023-03-12T13:51:25.096Z,25.63
2023-03-12T13:54:18.735Z,16.95
2023-03-12T13:57:05.910Z,26.80
2023-03-12T13:59:34.056Z,26.25
2023-03-12T14:02:07.481Z,14.68
2023-03-12T14:04:42.100Z,22.48
2023-03-12T14:07:30.723Z,22.95
2023-03-12T14:10:11.563Z,24.88
2023-03-12T14:12:49.790Z,15.82
2023-03-12T14:15:29.797Z,18.17
2023-03-12T14:18:03.684Z,20.77
2023-03-12T14:20:32.001Z,21.55
2023-03-12T14:23:04.904Z,18.08
2023-03-12T14:25:48.347Z,17.90
2023-03-12T14:28:22.632Z,17.67
2023-03-12T14:33:27.846Z,28.35
2023-03-12T14:36:04.163Z,17.92
2023-03-12T14:38:38.030Z,16.70
2023-03-12T14:41:29.812Z,23.58
2023-03-12T14:44:06.820Z,14.32
2023-03-12T14:46:34.575Z,14.30
2023-03-12T14:49:03.103Z,18.77
2023-03-12T14:51:36.357Z,22.15
2023-03-12T14:54:03.740Z,21.85
2023-03-12T14:56:36.255Z,18.95
2023-03-12T14:59:31.543Z,24.13
2023-03-12T15:02:13.847Z,16.15
2023-03-12T15:04:42.233Z,25.90
2023-03-12T15:09:44.910Z,19.52
2023-03-12T15:12:28.219Z,15.20
2023-03-12T15:15:04.486Z,17.38
2023-03-12T15:17:34.940Z,21.73
2023-03-12T15:20:10.228Z,18.73
2023-03-12T15:22:38.219Z,19.13
2023-03-12T15:25:27.848Z,18.35
2023-03-12T15:28:15.053Z,21.48
2023-03-12T15:30:43.631Z,16.90
2023-03-12T15:33:14.862Z,12.73
2023-03-12T15:35:57.760Z,19.48
2023-03-12T15:38:27.536Z,18.33
2023-03-12T15:41:00.583Z,18.55
2023-03-12T15:43:28.559Z,14.20
2023-03-12T15:46:06.540Z,15.77
2023-03-12T15:48:50.934Z,12.02
2023-03-12T15:51:37.433Z,13.98
2023-03-12T15:54:14.743Z,14.90
2023-03-12T15:56:42.762Z,17.98
2023-03-12T15:59:15.943Z,16.33
2023-03-12T16:01:51.784Z,22.80
2023-03-12T16:04:21.552Z,13.02
2023-03-12T16:06:53.899Z,20.75
2023-03-12T16:09:29.732Z,17.77
2023-03-12T16:11:57.966Z,23.98
2023-03-12T16:14:31.329Z,22.80
2023-03-12T16:16:58.771Z,16.27
2023-03-12T16:19:29.414Z,13.63
2023-03-12T16:22:00.161Z,16.90
2023-03-12T16:24:28.447Z,15.05
2023-03-12T16:26:59.254Z,20.13
2023-03-12T16:29:36.028Z,19.67
2023-03-12T16:32:14.254Z,15.80
2023-03-12T16:34:43.523Z,22.08
2023-03-12T16:37:13.066Z,24.60
2023-03-12T16:39:40.447Z,21.48
2023-03-12T16:42:15.938Z,15.02
2023-03-12T16:44:46.355Z,23.85
2023-03-12T16:47:14.668Z,19.58
2023-03-12T16:49:44.120Z,12.90
2023-03-12T16:52:23.075Z,17.75
2023-03-12T16:54:52.361Z,21.35
2023-03-12T16:57:35.170Z,21.20
2023-03-12T17:00:15.907Z,22.15
2023-03-12T17:02:42.924Z,26.90
2023-03-12T17:05:11.219Z,22.48
2023-03-12T17:10:08.898Z,22.13
2023-03-12T17:12:39.393Z,14.40
2023-03-12T17:15:26.213Z,21.70
2023-03-12T17:17:55.625Z,21.05
2023-03-12T17:20:24.876Z,17.73
2023-03-12T17:22:53.634Z,21.58
2023-03-12T17:25:26.210Z,22.35
2023-03-12T17:27:56.690Z,17.63
2023-03-12T17:30:25.254Z,22.55
2023-03-12T17:32:54.640Z,16.20
2023-03-12T17:35:21.977Z,19.88
2023-03-12T17:37:49.420Z,22.60
2023-03-12T17:40:17.594Z,18.73
2023-03-12T17:42:45.728Z,22.92
2023-03-12T17:45:13.180Z,24.58
2023-03-12T17:47:41.390Z,22.35
2023-03-12T17:50:10.095Z,20.92
2023-03-12T17:52:37.237Z,20.52
2023-03-12T17:55:05.248Z,31.00
2023-03-12T17:57:32.740Z,24.58
2023-03-12T18:00:00.474Z,25.30
2023-03-12T18:02:27.639Z,19.52
2023-03-12T18:04:55.755Z,27.80
2023-03-12T18:07:23.329Z,30.88
2023-03-12T18:09:53.115Z,16.05
2023-03-12T18:12:20.376Z,22.65
2023-03-12T18:14:48.904Z,20.20
2023-03-12T18:17:16.396Z,17.38
2023-03-12T18:19:43.625Z,10.50
2023-03-12T18:22:14.678Z,16.05
2023-03-12T18:24:42.691Z,6.57
2023-03-12T18:27:09.813Z,15.70
2023-03-12T18:29:37.997Z,11.20
2023-03-12T18:32:05.272Z,17.60
2023-03-12T18:34:32.387Z,17.15
2023-03-12T18:36:59.636Z,11.65
2023-03-12T18:39:27.567Z,8.00
2023-03-12T18:41:57.689Z,12.80
2023-03-12T18:44:24.862Z,8.95
2023-03-12T18:46:52.284Z,9.90
2023-03-12T18:49:21.073Z,12.43
2023-03-12T18:51:53.621Z,18.73
2023-03-12T18:54:24.395Z,8.80
2023-03-12T18:56:51.914Z,14.38
2023-03-12T18:59:19.226Z,9.52
2023-03-12T19:01:46.685Z,10.40
2023-03-12T19:04:19.313Z,14.98
2023-03-12T19:06:51.060Z,15.73
2023-03-12T19:09:19.214Z,21.48
2023-03-12T19:11:49.832Z,16.85
2023-03-12T19:14:17.737Z,15.05
2023-03-12T19:16:44.831Z,12.32
2023-03-12T19:19:14.138Z,12.75
2023-03-12T19:24:10.646Z,15.70
2023-03-12T19:26:38.238Z,14.25
2023-03-12T19:29:06.024Z,20.25
2023-03-12T19:31:33.548Z,15.43
2023-03-12T19:34:01.377Z,13.65
2023-03-12T19:36:28.381Z,14.65
2023-03-12T19:38:55.349Z,18.40
2023-03-12T19:41:22.754Z,14.13
2023-03-12T19:43:49.923Z,14.35
2023-03-12T19:46:22.341Z,21.60
2023-03-12T19:48:50.409Z,18.80
2023-03-12T19:51:17.423Z,29.15
2023-03-12T19:53:44.882Z,13.77
2023-03-12T19:56:16.509Z,10.75
2023-03-12T19:58:49.873Z,19.15
2023-03-12T20:01:18.431Z,11.82
2023-03-12T20:03:47.131Z,10.27
2023-03-12T20:06:14.268Z,11.55
2023-03-12T20:08:42.533Z,9.20
2023-03-12T20:11:11.638Z,13.48
2023-03-12T20:13:39.533Z,15.95
2023-03-12T20:16:07.894Z,13.73
2023-03-12T20:18:35.447Z,17.83
2023-03-12T20:21:02.636Z,8.57
2023-03-12T20:23:31.406Z,10.10
2023-03-12T20:25:59.840Z,7.13
2023-03-12T20:28:27.805Z,14.43
2023-03-12T20:30:58.044Z,13.57
2023-03-12T20:33:26.397Z,12.57
2023-03-12T20:35:53.865Z,9.35
2023-03-12T20:38:21.067Z,8.05
2023-03-12T20:40:48.248Z,10.48
2023-03-12T20:43:15.637Z,15.77
2023-03-12T20:45:47.043Z,17.50
2023-03-12T20:48:15.880Z,16.00
2023-03-12T20:50:42.968Z,10.75
2023-03-12T20:53:10.228Z,14.90
2023-03-12T20:55:41.273Z,19.17
2023-03-12T20:58:08.154Z,11.18
2023-03-12T21:00:35.211Z,14.77
2023-03-12T21:03:05.458Z,18.70
2023-03-12T21:05:33.312Z,12.70
2023-03-12T21:08:01.205Z,18.17
2023-03-12T21:10:28.435Z,14.23
2023-03-12T21:12:57.531Z,15.18
2023-03-12T21:15:24.113Z,11.55
2023-03-12T21:17:51.077Z,13.02
2023-03-12T21:20:18.803Z,14.98
2023-03-12T21:22:46.997Z,17.15
2023-03-12T21:25:13.730Z,15.38
2023-03-12T21:27:50.379Z,16.98
2023-03-12T21:30:18.741Z,10.25
2023-03-12T21:32:45.581Z,26.17
2023-03-12T21:35:12.537Z,17.15
2023-03-12T21:37:39.625Z,17.67
2023-03-12T21:40:07.865Z,18.92
2023-03-12T21:42:34.436Z,27.58
2023-03-12T21:45:01.238Z,13.10
2023-03-12T21:47:28.040Z,13.82
2023-03-12T21:49:54.879Z,11.93
2023-03-12T21:52:21.633Z,15.93
2023-03-12T21:54:48.268Z,14.48
2023-03-12T21:57:14.968Z,17.58
2023-03-12T21:59:41.532Z,16.35
2023-03-12T22:02:11.832Z,18.42
2023-03-12T22:04:38.440Z,14.77
2023-03-12T22:07:05.986Z,23.35
2023-03-12T22:09:32.633Z,16.17
2023-03-12T22:11:59.496Z,19.48
2023-03-12T22:14:26.438Z,18.23
2023-03-12T22:16:53.226Z,15.68
2023-03-12T22:19:23.272Z,18.45
2023-03-12T22:21:50.259Z,15.25
2023-03-12T22:24:17.513Z,19.00
2023-03-12T22:26:44.378Z,27.95
2023-03-12T22:29:11.208Z,21.92
2023-03-12T22:31:38.038Z,17.77
2023-03-12T22:34:04.891Z,12.95
2023-03-12T22:36:31.569Z,30.20
2023-03-12T22:38:59.616Z,19.83
2023-03-12T22:41:29.993Z,24.55
2023-03-12T22:44:06.287Z,21.48
2023-03-12T22:46:33.887Z,18.85
2023-03-12T22:49:02.564Z,17.00
2023-03-12T22:51:31.626Z,18.67
2023-03-12T22:53:58.525Z,32.50
2023-03-12T22:56:27.234Z,24.60
2023-03-12T22:58:55.739Z,19.05
2023-03-12T23:01:23.313Z,21.98
2023-03-12T23:03:50.911Z,18.00
2023-03-12T23:06:23.815Z,25.73
2023-03-12T23:08:51.543Z,19.77
2023-03-12T23:11:19.729Z,16.02
2023-03-12T23:13:46.755Z,22.27
2023-03-12T23:16:19.733Z,28.50
2023-03-12T23:18:46.910Z,24.17
2023-03-12T23:21:17.529Z,22.83
2023-03-12T23:23:44.968Z,25.40
2023-03-12T23:26:24.616Z,22.40
2023-03-12T23:28:53.546Z,17.80
2023-03-12T23:31:21.134Z,28.27
2023-03-12T23:33:47.911Z,17.50
2023-03-12T23:36:20.799Z,16.52
2023-03-12T23:38:48.876Z,12.05
2023-03-12T23:41:17.093Z,13.85
2023-03-12T23:43:44.227Z,15.88
2023-03-12T23:46:12.267Z,22.02
2023-03-12T23:48:39.961Z,22.35
2023-03-12T23:51:11.066Z,19.60
2023-03-12T23:53:39.886Z,20.77
2023-03-12T23:56:10.515Z,20.42
2023-03-12T23:58:37.149Z,18.23
